Time,TemperatureF,DewpointF,PressureIn,WindDirection,WindDirectionDegrees,WindSpeedMPH,WindSpeedGustMPH,Humidity,HourlyPrecipIn,Conditions,Clouds,dailyrainin,SoftwareType,DateUTC
2013-01-31 00:03:00,28.4,-4.8,29.76,West,260,8.0,15.0,23,0.00,CLR,CLR,0.00,WeatherDisplay:10.37,2013-01-31 05:03:00,
2013-01-31 00:18:00,28.6,-4.6,29.79,WSW,247,9.0,11.0,23,0.00,CLR,CLR,0.00,WeatherDisplay:10.37,2013-01-31 05:18:00,
2013-01-31 00:33:00,28.6,-4.6,29.79,West,263,7.0,12.0,23,0.00,CLR,CLR,0.00,WeatherDisplay:10.37,2013-01-31 05:33:00,
2013-01-31 00:48:00,28.6,-4.6,29.79,West,265,7.0,11.0,23,0.00,CLR,CLR,0.00,WeatherDisplay:10.37,2013-01-31 05:48:00,
2013-01-31 01:03:00,28.6,-4.6,29.82,WSW,256,7.0,11.0,23,0.00,CLR,CLR,0.00,WeatherDisplay:10.37,2013-01-31 06:03:00,
2013-01-31 01:18:00,28.4,-4.8,29.85,West,263,9.0,13.0,23,0.00,CLR,CLR,0.00,WeatherDisplay:10.37,2013-01-31 06:18:00,
2013-01-31 01:33:00,28.2,-4.9,29.85,West,276,9.0,16.0,23,0.00,CLR,CLR,0.00,WeatherDisplay:10.37,2013-01-31 06:33:00,
2013-01-31 01:48:00,28.0,-5.1,29.85,West,271,7.0,12.0,23,0.00,CLR,CLR,0.00,WeatherDisplay:10.37,2013-01-31 06:48:00,
2013-01-31 02:03:00,27.9,-5.2,29.82,West,261,12.0,20.0,23,0.00,CLR,CLR,0.00,WeatherDisplay:10.37,2013-01-31 07:03:00,
2013-01-31 02:18:00,27.9,-5.2,29.85,West,270,9.0,12.0,23,0.00,CLR,CLR,0.00,WeatherDisplay:10.37,2013-01-31 07:18:00,
2013-01-31 02:33:00,27.9,-5.2,29.82,West,270,14.0,15.0,23,0.00,CLR,CLR,0.00,WeatherDisplay:10.37,2013-01-31 07:33:00,
2013-01-31 02:48:00,27.9,-5.2,29.85,WSW,258,15.0,16.0,23,0.00,CLR,CLR,0.00,WeatherDisplay:10.37,2013-01-31 07:48:00,
2013-01-31 03:03:00,27.9,-5.2,29.88,WSW,257,9.0,13.0,23,0.00,CLR,CLR,0.00,WeatherDisplay:10.37,2013-01-31 08:03:00,
2013-01-31 03:18:00,27.7,-5.4,29.88,West,261,7.0,15.0,23,0.00,CLR,CLR,0.00,WeatherDisplay:10.37,2013-01-31 08:18:00,
2013-01-31 03:33:00,27.3,-5.7,29.88,WSW,257,10.0,17.0,23,0.00,CLR,CLR,0.00,WeatherDisplay:10.37,2013-01-31 08:33:00,
2013-01-31 08:40:00,27.1,10.9,29.88,WSW,248,23.2,23.2,50,0.00,CLR,,0.00,WeatherDisplay:10.37,2013-01-31 13:40:00,
2013-01-31 08:45:00,27.0,16.8,29.88,WSW,248,16.6,16.6,65,0.00,-SN,,0.00,WeatherDisplay:10.37,2013-01-31 13:45:00,
2013-01-31 08:50:00,27.0,16.8,29.88,WSW,248,11.5,11.5,65,0.00,-SN,,0.00,WeatherDisplay:10.37,2013-01-31 13:50:00,
2013-01-31 08:55:00,27.0,16.8,29.88,West,270,13.8,13.8,65,0.00,-SN,,0.00,WeatherDisplay:10.37,2013-01-31 13:55:00,
2013-01-31 09:00:00,27.0,16.8,29.88,WSW,248,8.5,8.5,65,0.00,-SN,,0.00,WeatherDisplay:10.37,2013-01-31 14:00:00,
2013-01-31 09:05:00,27.1,16.9,29.91,West,270,9.2,9.2,65,0.00,-SN,,0.00,WeatherDisplay:10.37,2013-01-31 14:05:00,
2013-01-31 09:10:00,27.1,16.9,29.91,West,270,9.2,9.2,65,0.00,-SN,,0.00,WeatherDisplay:10.37,2013-01-31 14:10:00,
2013-01-31 09:15:00,27.3,17.1,29.91,West,270,13.8,13.8,65,0.00,-SN,,0.00,WeatherDisplay:10.37,2013-01-31 14:15:00,
2013-01-31 09:20:00,27.3,17.1,29.91,West,270,6.9,6.9,65,0.00,-SN,,0.00,WeatherDisplay:10.37,2013-01-31 14:20:00,
2013-01-31 09:25:00,27.3,17.1,29.91,WNW,292,8.1,8.1,65,0.00,-SN,,0.00,WeatherDisplay:10.37,2013-01-31 14:25:00,
2013-01-31 09:30:00,27.0,16.8,29.91,West,270,10.4,10.4,65,0.00,-SN,,0.00,WeatherDisplay:10.37,2013-01-31 14:30:00,
2013-01-31 09:35:00,27.1,18.0,29.91,WSW,248,9.2,9.2,68,0.00,-SN,,0.00,WeatherDisplay:10.37,2013-01-31 14:35:00,
2013-01-31 09:40:00,27.0,17.8,29.91,SW,225,9.2,9.2,68,0.00,-SN,,0.00,WeatherDisplay:10.37,2013-01-31 14:40:00,
2013-01-31 09:45:00,27.0,18.5,29.91,West,270,8.1,8.1,70,0.00,-SN,,0.00,WeatherDisplay:10.37,2013-01-31 14:45:00,
2013-01-31 09:50:00,27.0,18.5,29.91,West,270,8.1,8.1,70,0.00,-SN,,0.00,WeatherDisplay:10.37,2013-01-31 14:50:00,
2013-01-31 09:55:00,27.1,18.6,29.91,West,270,8.1,8.1,70,0.00,-SN,,0.00,WeatherDisplay:10.37,2013-01-31 14:55:00,
2013-01-31 10:00:00,27.3,18.8,29.91,WSW,248,6.9,6.9,70,0.00,-SN,,0.00,WeatherDisplay:10.37,2013-01-31 15:00:00,
2013-01-31 10:05:00,27.5,18.3,29.91,West,270,6.9,6.9,68,0.00,-SN,,0.00,WeatherDisplay:10.37,2013-01-31 15:05:00,
2013-01-31 10:10:00,27.3,17.1,29.91,WSW,248,10.4,10.4,65,0.00,-SN,,0.00,WeatherDisplay:10.37,2013-01-31 15:10:00,
2013-01-31 10:15:00,27.3,18.1,29.91,West,270,9.2,9.2,68,0.00,-SN,,0.00,WeatherDisplay:10.37,2013-01-31 15:15:00,
2013-01-31 10:21:00,27.1,18.6,29.91,West,270,6.9,6.9,70,0.00,-SN,,0.00,WeatherDisplay:10.37,2013-01-31 15:21:00,
2013-01-31 10:26:00,27.0,17.8,29.91,West,270,10.4,10.4,68,0.00,-SN,,0.00,WeatherDisplay:10.37,2013-01-31 15:26:00,
2013-01-31 10:31:00,27.1,18.6,29.91,WSW,248,8.1,8.1,70,0.00,-SN,,0.00,WeatherDisplay:10.37,2013-01-31 15:31:00,
2013-01-31 10:36:00,27.5,20.0,29.91,WSW,248,6.9,6.9,73,0.00,-SN,,0.00,WeatherDisplay:10.37,2013-01-31 15:36:00,
2013-01-31 10:41:00,27.1,18.0,29.91,WSW,248,8.1,8.1,68,0.00,-SN,,0.00,WeatherDisplay:10.37,2013-01-31 15:41:00,
2013-01-31 10:46:00,27.5,20.0,29.91,West,270,9.2,9.2,73,0.00,-SN,,0.00,WeatherDisplay:10.37,2013-01-31 15:46:00,
2013-01-31 10:52:00,27.1,19.6,29.93,WSW,248,8.1,8.1,73,0.00,-SN,,0.00,WeatherDisplay:10.37,2013-01-31 15:52:00,
2013-01-31 10:57:00,27.3,20.1,29.93,SW,225,9.2,9.2,74,0.00,-SN,,0.00,WeatherDisplay:10.37,2013-01-31 15:57:00,
2013-01-31 11:02:00,27.5,20.0,29.93,SW,225,6.9,6.9,73,0.00,-SN,,0.00,WeatherDisplay:10.37,2013-01-31 16:02:00,
2013-01-31 11:07:00,28.0,20.8,29.93,SW,225,6.9,6.9,74,0.00,-SN,,0.00,WeatherDisplay:10.37,2013-01-31 16:07:00,
2013-01-31 11:12:00,27.9,18.7,29.93,SW,225,13.8,13.8,68,0.00,-SN,,0.00,WeatherDisplay:10.37,2013-01-31 16:12:00,
2013-01-31 11:18:00,28.2,19.0,29.93,West,270,9.2,9.2,68,0.00,-SN,,0.00,WeatherDisplay:10.37,2013-01-31 16:18:00,
2013-01-31 11:23:00,29.1,19.5,29.93,WSW,248,10.4,10.4,67,0.00,-SN,,0.00,WeatherDisplay:10.37,2013-01-31 16:23:00,
2013-01-31 11:28:00,29.8,19.5,29.93,West,270,6.9,6.9,65,0.00,-SN,,0.00,WeatherDisplay:10.37,2013-01-31 16:28:00,
2013-01-31 11:33:00,29.8,19.5,29.93,West,270,10.4,10.4,65,0.00,-SN,,0.00,WeatherDisplay:10.37,2013-01-31 16:33:00,
2013-01-31 11:38:00,30.4,20.0,29.93,West,270,12.3,13.0,65,0.00,-SN,,0.00,WeatherDisplay:10.37,2013-01-31 16:38:00,
2013-01-31 11:43:00,30.2,19.8,29.93,West,270,21.9,21.9,65,0.00,-SN,,0.00,WeatherDisplay:10.37,2013-01-31 16:43:00,
2013-01-31 11:48:00,30.0,19.7,29.93,WSW,248,18.4,18.4,65,0.00,-SN,,0.00,WeatherDisplay:10.37,2013-01-31 16:48:00,
2013-01-31 11:53:00,31.3,20.9,29.93,West,270,18.4,18.4,65,0.00,-SN,,0.00,WeatherDisplay:10.37,2013-01-31 16:53:00,
2013-01-31 11:59:00,32.7,22.2,29.93,West,270,17.3,17.3,65,0.00,-SN,,0.00,WeatherDisplay:10.37,2013-01-31 16:59:00,
2013-01-31 12:04:00,32.2,21.7,29.93,West,270,17.3,17.3,65,0.00,-SN,,0.00,WeatherDisplay:10.37,2013-01-31 17:04:00,
2013-01-31 12:09:00,31.5,21.0,29.93,WSW,248,13.8,14.3,65,0.00,-SN,,0.00,WeatherDisplay:10.37,2013-01-31 17:09:00,
2013-01-31 12:14:00,31.3,20.9,29.93,West,270,17.3,17.3,65,0.00,-SN,,0.00,WeatherDisplay:10.37,2013-01-31 17:14:00,
2013-01-31 12:19:00,31.6,21.2,29.93,West,270,16.1,16.1,65,0.00,-SN,,0.00,WeatherDisplay:10.37,2013-01-31 17:19:00,
2013-01-31 12:24:00,32.2,21.7,29.93,WNW,292,20.7,20.7,65,0.00,-SN,,0.00,WeatherDisplay:10.37,2013-01-31 17:24:00,
2013-01-31 12:29:00,31.3,20.9,29.93,WSW,248,15.0,15.0,65,0.00,-SN,,0.00,WeatherDisplay:10.37,2013-01-31 17:29:00,
2013-01-31 12:34:00,31.3,20.9,29.93,West,270,16.1,16.1,65,0.00,BKN,,0.00,WeatherDisplay:10.37,2013-01-31 17:34:00,
2013-01-31 12:39:00,31.3,20.9,29.93,West,270,18.5,18.5,65,0.00,BKN,,0.00,WeatherDisplay:10.37,2013-01-31 17:39:00,
2013-01-31 12:44:00,31.6,21.2,29.93,West,270,16.3,16.3,65,0.00,BKN,,0.00,WeatherDisplay:10.37,2013-01-31 17:44:00,
2013-01-31 12:49:00,33.6,23.1,29.91,West,270,11.5,11.5,65,0.00,BKN,,0.00,WeatherDisplay:10.37,2013-01-31 17:49:00,
2013-01-31 12:54:00,33.1,22.6,29.91,SW,225,15.0,15.0,65,0.00,BKN,,0.00,WeatherDisplay:10.37,2013-01-31 17:54:00,
2013-01-31 12:59:00,33.6,23.1,29.91,WSW,248,15.0,15.0,65,0.00,BKN,,0.00,WeatherDisplay:10.37,2013-01-31 17:59:00,
2013-01-31 13:04:00,34.7,23.8,29.91,West,270,13.8,13.8,64,0.00,-SN,,0.00,WeatherDisplay:10.37,2013-01-31 18:04:00,
2013-01-31 13:09:00,35.1,24.1,29.91,West,270,17.3,17.3,64,0.00,-SN,,0.00,WeatherDisplay:10.37,2013-01-31 18:09:00,
2013-01-31 13:14:00,33.1,22.6,29.91,West,270,12.7,12.7,65,0.00,-SN,,0.00,WeatherDisplay:10.37,2013-01-31 18:14:00,
2013-01-31 13:19:00,33.1,22.6,29.91,West,270,15.0,15.0,65,0.00,-SN,,0.00,WeatherDisplay:10.37,2013-01-31 18:19:00,
2013-01-31 13:24:00,33.3,22.8,29.91,WSW,248,19.6,19.6,65,0.00,-SN,,0.00,WeatherDisplay:10.37,2013-01-31 18:24:00,
2013-01-31 13:29:00,33.8,22.9,29.91,WSW,248,15.0,15.0,64,0.00,-SN,,0.00,WeatherDisplay:10.37,2013-01-31 18:29:00,
2013-01-31 13:34:00,33.3,22.8,29.91,WSW,248,13.8,13.8,65,0.00,BKN,,0.00,WeatherDisplay:10.37,2013-01-31 18:34:00,
2013-01-31 13:39:00,33.3,22.8,29.91,West,270,15.0,15.0,65,0.00,BKN,,0.00,WeatherDisplay:10.37,2013-01-31 18:39:00,
2013-01-31 13:44:00,33.4,22.9,29.91,WSW,248,19.6,19.6,65,0.00,BKN,,0.00,WeatherDisplay:10.37,2013-01-31 18:44:00,
2013-01-31 13:49:00,33.3,22.8,29.91,West,270,12.8,12.8,65,0.00,BKN,,0.00,WeatherDisplay:10.37,2013-01-31 18:49:00,
2013-01-31 13:54:00,33.6,23.1,29.91,WSW,248,9.2,9.2,65,0.00,BKN,,0.00,WeatherDisplay:10.37,2013-01-31 18:54:00,
2013-01-31 13:59:00,33.8,22.9,29.91,West,270,13.8,13.8,64,0.00,BKN,,0.00,WeatherDisplay:10.37,2013-01-31 18:59:00,
2013-01-31 14:04:00,33.8,22.9,29.91,West,270,18.4,18.4,64,0.00,BKN,,0.00,WeatherDisplay:10.37,2013-01-31 19:04:00,
2013-01-31 14:09:00,33.8,22.9,29.91,West,270,20.4,20.4,64,0.00,BKN,,0.00,WeatherDisplay:10.37,2013-01-31 19:09:00,
2013-01-31 14:14:00,33.6,23.1,29.91,WSW,248,15.0,15.0,65,0.00,BKN,,0.00,WeatherDisplay:10.37,2013-01-31 19:14:00,
2013-01-31 14:19:00,34.3,23.4,29.91,West,270,15.0,15.0,64,0.00,BKN,,0.00,WeatherDisplay:10.37,2013-01-31 19:19:00,
2013-01-31 14:24:00,34.2,23.2,29.91,WSW,248,17.3,17.3,64,0.00,BKN,,0.00,WeatherDisplay:10.37,2013-01-31 19:24:00,
2013-01-31 14:29:00,34.9,23.9,29.91,West,270,15.0,15.0,64,0.00,BKN,,0.00,WeatherDisplay:10.37,2013-01-31 19:29:00,
2013-01-31 14:34:00,35.6,24.6,29.91,West,270,16.1,16.1,64,0.00,BKN,,0.00,WeatherDisplay:10.37,2013-01-31 19:34:00,
2013-01-31 14:39:00,36.0,25.0,29.91,West,270,16.1,16.1,64,0.00,BKN,,0.00,WeatherDisplay:10.37,2013-01-31 19:39:00,
2013-01-31 14:44:00,35.8,24.8,29.91,WNW,292,15.6,15.6,64,0.00,BKN,,0.00,WeatherDisplay:10.37,2013-01-31 19:44:00,
2013-01-31 14:49:00,34.9,23.9,29.91,WSW,248,19.6,19.6,64,0.00,BKN,,0.00,WeatherDisplay:10.37,2013-01-31 19:49:00,
2013-01-31 14:54:00,35.8,24.8,29.91,West,270,13.8,13.8,64,0.00,BKN,,0.00,WeatherDisplay:10.37,2013-01-31 19:54:00,
2013-01-31 14:59:00,36.7,25.6,29.91,WSW,248,19.6,19.6,64,0.00,BKN,,0.00,WeatherDisplay:10.37,2013-01-31 19:59:00,
2013-01-31 15:04:00,36.3,25.3,29.91,WSW,248,17.3,17.3,64,0.00,SCT,,0.00,WeatherDisplay:10.37,2013-01-31 20:04:00,
2013-01-31 15:09:00,36.3,25.3,29.91,SW,225,15.0,15.0,64,0.00,SCT,,0.00,WeatherDisplay:10.37,2013-01-31 20:09:00,
2013-01-31 15:14:00,35.8,24.8,29.91,SW,225,23.0,23.0,64,0.00,SCT,,0.00,WeatherDisplay:10.37,2013-01-31 20:14:00,
2013-01-31 15:19:00,35.8,24.8,29.88,West,270,17.5,17.5,64,0.00,SCT,,0.00,WeatherDisplay:10.37,2013-01-31 20:19:00,
2013-01-31 15:23:00,35.6,24.6,29.88,WSW,248,19.6,19.6,64,0.00,SCT,,0.00,WeatherDisplay:10.37,2013-01-31 20:23:00,
2013-01-31 15:28:00,35.2,24.3,29.88,West,270,12.7,12.7,64,0.00,SCT,,0.00,WeatherDisplay:10.37,2013-01-31 20:28:00,
2013-01-31 15:33:00,36.9,25.8,29.91,West,270,12.8,12.8,64,0.00,SCT,,0.00,WeatherDisplay:10.37,2013-01-31 20:33:00,
2013-01-31 15:38:00,36.7,25.6,29.91,West,270,10.4,10.4,64,0.00,SCT,,0.00,WeatherDisplay:10.37,2013-01-31 20:38:00,
2013-01-31 15:43:00,36.5,25.5,29.91,West,270,11.5,11.5,64,0.00,SCT,,0.00,WeatherDisplay:10.37,2013-01-31 20:43:00,
2013-01-31 15:48:00,37.0,26.0,29.88,West,270,10.4,10.4,64,0.00,SCT,,0.00,WeatherDisplay:10.37,2013-01-31 20:48:00,
2013-01-31 15:53:00,37.6,26.1,29.88,West,270,10.4,10.4,63,0.00,SCT,,0.00,WeatherDisplay:10.37,2013-01-31 20:53:00,
2013-01-31 15:58:00,37.6,26.1,29.88,SW,225,16.1,16.1,63,0.00,SCT,,0.00,WeatherDisplay:10.37,2013-01-31 20:58:00,
2013-01-31 16:03:00,37.2,26.2,29.88,WSW,248,16.1,16.1,64,0.00,BKN,,0.00,WeatherDisplay:10.37,2013-01-31 21:03:00,
2013-01-31 16:08:00,37.4,25.9,29.88,WSW,248,12.7,12.7,63,0.00,BKN,,0.00,WeatherDisplay:10.37,2013-01-31 21:08:00,
2013-01-31 16:13:00,36.5,25.5,29.88,West,270,12.7,12.7,64,0.00,BKN,,0.00,WeatherDisplay:10.37,2013-01-31 21:13:00,
2013-01-31 16:18:00,36.7,25.6,29.88,WSW,248,10.4,10.4,64,0.00,BKN,,0.00,WeatherDisplay:10.37,2013-01-31 21:18:00,
2013-01-31 16:23:00,36.7,25.6,29.88,West,270,15.0,15.0,64,0.00,BKN,,0.00,WeatherDisplay:10.37,2013-01-31 21:23:00,
2013-01-31 16:28:00,36.1,25.1,29.88,West,270,13.8,13.8,64,0.00,BKN,,0.00,WeatherDisplay:10.37,2013-01-31 21:28:00,
2013-01-31 16:33:00,36.0,25.0,29.88,West,270,17.3,17.3,64,0.00,BKN,,0.00,WeatherDisplay:10.37,2013-01-31 21:33:00,
2013-01-31 16:38:00,36.0,25.0,29.88,West,270,13.8,13.8,64,0.00,BKN,,0.00,WeatherDisplay:10.37,2013-01-31 21:38:00,
2013-01-31 16:43:00,36.0,25.0,29.88,West,270,12.8,12.8,64,0.00,BKN,,0.00,WeatherDisplay:10.37,2013-01-31 21:43:00,
2013-01-31 16:48:00,35.8,24.8,29.88,WSW,248,13.8,13.8,64,0.00,BKN,,0.00,WeatherDisplay:10.37,2013-01-31 21:48:00,
2013-01-31 16:53:00,35.8,24.8,29.88,West,270,11.5,11.5,64,0.00,BKN,,0.00,WeatherDisplay:10.37,2013-01-31 21:53:00,
2013-01-31 16:58:00,36.0,25.0,29.88,West,270,12.7,12.7,64,0.00,BKN,,0.00,WeatherDisplay:10.37,2013-01-31 21:58:00,
2013-01-31 17:03:00,35.8,24.8,29.88,SW,225,15.0,15.0,64,0.00,BKN,,0.00,WeatherDisplay:10.37,2013-01-31 22:03:00,
2013-01-31 17:08:00,35.6,24.6,29.88,WSW,248,10.4,10.4,64,0.00,BKN,,0.00,WeatherDisplay:10.37,2013-01-31 22:08:00,
2013-01-31 17:13:00,35.6,24.6,29.88,SW,225,9.2,9.2,64,0.00,BKN,,0.00,WeatherDisplay:10.37,2013-01-31 22:13:00,
2013-01-31 17:18:00,35.6,24.6,29.88,SW,225,16.1,16.1,64,0.00,OVC,,0.00,WeatherDisplay:10.37,2013-01-31 22:18:00,
2013-01-31 17:23:00,35.6,24.6,29.88,WSW,248,10.4,10.4,64,0.00,OVC,,0.00,WeatherDisplay:10.37,2013-01-31 22:23:00,
2013-01-31 17:28:00,35.6,24.6,29.88,WSW,248,10.4,10.4,64,0.00,OVC,,0.00,WeatherDisplay:10.37,2013-01-31 22:28:00,
2013-01-31 17:33:00,35.6,24.6,29.88,WSW,248,12.7,12.7,64,0.00,OVC,,0.00,WeatherDisplay:10.37,2013-01-31 22:33:00,
2013-01-31 17:38:00,35.6,24.6,29.88,WSW,248,15.0,15.0,64,0.00,OVC,,0.00,WeatherDisplay:10.37,2013-01-31 22:38:00,
2013-01-31 17:43:00,35.6,24.6,29.88,West,270,11.5,11.5,64,0.00,OVC,,0.00,WeatherDisplay:10.37,2013-01-31 22:43:00,
2013-01-31 17:48:00,35.4,24.4,29.88,West,270,13.8,13.8,64,0.00,OVC,,0.00,WeatherDisplay:10.37,2013-01-31 22:48:00,
2013-01-31 17:53:00,35.4,24.4,29.88,West,270,10.0,10.0,64,0.00,OVC,,0.00,WeatherDisplay:10.37,2013-01-31 22:53:00,
2013-01-31 17:58:00,35.4,24.4,29.88,WSW,248,9.2,9.2,64,0.00,OVC,,0.00,WeatherDisplay:10.37,2013-01-31 22:58:00,
2013-01-31 18:03:00,35.4,24.4,29.91,West,270,12.8,12.8,64,0.00,BKN,,0.00,WeatherDisplay:10.37,2013-01-31 23:03:00,
2013-01-31 18:08:00,35.4,24.4,29.91,WSW,248,9.2,9.2,64,0.00,BKN,,0.00,WeatherDisplay:10.37,2013-01-31 23:08:00,
2013-01-31 18:13:00,35.4,24.4,29.91,WSW,248,12.7,12.7,64,0.00,BKN,,0.00,WeatherDisplay:10.37,2013-01-31 23:13:00,
2013-01-31 18:18:00,35.2,24.3,29.91,West,270,10.9,10.9,64,0.00,BKN,,0.00,WeatherDisplay:10.37,2013-01-31 23:18:00,
2013-01-31 18:23:00,35.4,24.4,29.91,West,270,19.6,19.6,64,0.00,BKN,,0.00,WeatherDisplay:10.37,2013-01-31 23:23:00,
2013-01-31 18:28:00,35.2,24.3,29.91,WSW,248,15.0,15.0,64,0.00,BKN,,0.00,WeatherDisplay:10.37,2013-01-31 23:28:00,
2013-01-31 18:33:00,35.1,24.1,29.91,WSW,248,12.7,12.7,64,0.00,BKN,,0.00,WeatherDisplay:10.37,2013-01-31 23:33:00,
2013-01-31 18:38:00,34.9,23.9,29.91,West,270,16.1,16.1,64,0.00,BKN,,0.00,WeatherDisplay:10.37,2013-01-31 23:38:00,
2013-01-31 18:44:00,34.5,23.6,29.91,West,270,10.4,10.4,64,0.00,BKN,,0.00,WeatherDisplay:10.37,2013-01-31 23:44:00,
2013-01-31 18:49:00,34.3,23.4,29.88,WSW,248,12.7,12.7,64,0.00,BKN,,0.00,WeatherDisplay:10.37,2013-01-31 23:49:00,
2013-01-31 18:54:00,34.0,23.1,29.88,West,270,15.0,15.0,64,0.00,BKN,,0.00,WeatherDisplay:10.37,2013-01-31 23:54:00,
2013-01-31 18:59:00,33.8,22.9,29.88,West,270,11.5,11.5,64,0.00,BKN,,0.00,WeatherDisplay:10.37,2013-01-31 23:59:00,
2013-01-31 19:04:00,33.8,22.9,29.91,WSW,248,11.5,11.5,64,0.00,BKN,,0.00,WeatherDisplay:10.37,2013-02-01 00:04:00,
2013-01-31 19:09:00,33.6,23.1,29.91,WSW,248,10.4,10.4,65,0.00,BKN,,0.00,WeatherDisplay:10.37,2013-02-01 00:09:00,
2013-01-31 19:14:00,33.6,23.1,29.91,WSW,248,10.4,10.4,65,0.00,BKN,,0.00,WeatherDisplay:10.37,2013-02-01 00:14:00,
2013-01-31 19:19:00,33.6,23.1,29.91,West,270,11.5,11.5,65,0.00,-SN,,0.00,WeatherDisplay:10.37,2013-02-01 00:19:00,
2013-01-31 19:24:00,33.6,23.1,29.91,West,270,10.4,10.4,65,0.00,-SN,,0.00,WeatherDisplay:10.37,2013-02-01 00:24:00,
2013-01-31 19:29:00,33.6,23.1,29.91,SW,225,8.1,8.1,65,0.00,-SN,,0.00,WeatherDisplay:10.37,2013-02-01 00:29:00,
2013-01-31 19:34:00,33.6,23.1,29.88,WSW,248,4.6,4.6,65,0.00,-SN,,0.00,WeatherDisplay:10.37,2013-02-01 00:34:00,
2013-01-31 19:39:00,33.8,22.9,29.88,West,270,6.9,6.9,64,0.00,-SN,,0.00,WeatherDisplay:10.37,2013-02-01 00:39:00,
2013-01-31 19:44:00,34.0,23.1,29.88,West,270,5.8,5.8,64,0.00,-SN,,0.00,WeatherDisplay:10.37,2013-02-01 00:44:00,
2013-01-31 19:49:00,34.0,23.1,29.91,WSW,248,9.2,9.2,64,0.00,-SN,,0.00,WeatherDisplay:10.37,2013-02-01 00:49:00,
2013-01-31 19:54:00,34.0,23.1,29.91,WSW,248,8.1,8.1,64,0.00,-SN,,0.00,WeatherDisplay:10.37,2013-02-01 00:54:00,
2013-01-31 19:59:00,34.0,23.1,29.91,West,270,8.1,8.1,64,0.00,-SN,,0.00,WeatherDisplay:10.37,2013-02-01 00:59:00,
2013-01-31 20:04:00,34.0,23.1,29.88,WSW,248,8.1,8.1,64,0.00,-SN,,0.00,WeatherDisplay:10.37,2013-02-01 01:04:00,
2013-01-31 20:09:00,34.5,23.6,29.88,SW,225,13.8,13.8,64,0.00,-SN,,0.00,WeatherDisplay:10.37,2013-02-01 01:09:00,
2013-01-31 20:14:00,34.7,23.8,29.88,WSW,248,12.7,12.7,64,0.00,-SN,,0.00,WeatherDisplay:10.37,2013-02-01 01:14:00,
2013-01-31 20:19:00,35.1,24.1,29.88,WSW,248,17.3,17.3,64,0.00,-SN,,0.00,WeatherDisplay:10.37,2013-02-01 01:19:00,
2013-01-31 20:24:00,34.9,23.9,29.88,WSW,248,14.7,14.7,64,0.00,-SN,,0.00,WeatherDisplay:10.37,2013-02-01 01:24:00,
2013-01-31 20:29:00,34.5,23.6,29.88,West,270,12.8,12.8,64,0.00,-SN,,0.00,WeatherDisplay:10.37,2013-02-01 01:29:00,
2013-01-31 20:34:00,34.2,23.2,29.88,WSW,248,8.1,8.1,64,0.00,-SN,,0.00,WeatherDisplay:10.37,2013-02-01 01:34:00,
2013-01-31 20:39:00,33.6,23.1,29.88,West,270,11.5,11.5,65,0.00,-SN,,0.00,WeatherDisplay:10.37,2013-02-01 01:39:00,
2013-01-31 20:44:00,33.1,23.3,29.88,WSW,248,5.8,5.8,67,0.00,-SN,,0.00,WeatherDisplay:10.37,2013-02-01 01:44:00,
2013-01-31 20:49:00,32.4,25.3,29.91,West,270,9.2,9.2,75,0.00,-SN,,0.00,WeatherDisplay:10.37,2013-02-01 01:49:00,
2013-01-31 20:54:00,32.2,26.4,29.91,West,270,10.4,10.4,79,0.00,-SN,,0.00,WeatherDisplay:10.37,2013-02-01 01:54:00,
2013-01-31 20:59:00,31.8,27.0,29.91,West,270,10.4,10.4,82,0.00,-SN,,0.00,WeatherDisplay:10.37,2013-02-01 01:59:00,
2013-01-31 21:04:00,31.5,28.0,29.91,West,270,12.7,12.7,87,0.00,-SN,,0.00,WeatherDisplay:10.37,2013-02-01 02:04:00,
2013-01-31 21:09:00,31.5,28.3,29.91,West,270,13.0,13.0,88,0.00,-SN,,0.00,WeatherDisplay:10.37,2013-02-01 02:09:00,
2013-01-31 21:14:00,31.5,27.8,29.91,West,270,15.0,15.0,86,0.00,-SN,,0.00,WeatherDisplay:10.37,2013-02-01 02:14:00,
2013-01-31 21:19:00,31.8,26.7,29.91,West,270,17.3,17.3,81,0.00,-SN,,0.00,WeatherDisplay:10.37,2013-02-01 02:19:00,
2013-01-31 21:24:00,31.8,26.0,29.91,West,270,25.3,25.3,79,0.00,-SN,,0.00,WeatherDisplay:10.37,2013-02-01 02:24:00,
2013-01-31 21:29:00,31.8,25.4,29.91,West,270,15.0,15.0,77,0.00,-SN,,0.00,WeatherDisplay:10.37,2013-02-01 02:29:00,
2013-01-31 21:34:00,31.8,25.1,29.91,WNW,292,15.0,15.0,76,0.00,-SN,,0.00,WeatherDisplay:10.37,2013-02-01 02:34:00,
2013-01-31 21:39:00,31.8,25.1,29.91,West,270,15.2,15.2,76,0.00,-SN,,0.00,WeatherDisplay:10.37,2013-02-01 02:39:00,
2013-01-31 21:44:00,30.6,23.9,29.91,NW,315,10.4,10.4,76,0.00,-SN,,0.00,WeatherDisplay:10.37,2013-02-01 02:44:00,
2013-01-31 21:49:00,28.6,21.3,29.91,NW,315,9.2,9.2,74,0.00,-SN,,0.00,WeatherDisplay:10.37,2013-02-01 02:49:00,
2013-01-31 21:54:00,27.9,21.3,29.91,NNW,338,8.1,8.1,76,0.00,-SN,,0.00,WeatherDisplay:10.37,2013-02-01 02:54:00,
2013-01-31 21:59:00,26.4,19.3,29.91,WNW,292,10.4,10.4,74,0.00,-SN,,0.00,WeatherDisplay:10.37,2013-02-01 02:59:00,
2013-01-31 22:04:00,25.9,18.7,29.96,West,270,8.1,8.1,74,0.00,-SN,,0.00,WeatherDisplay:10.37,2013-02-01 03:04:00,
2013-01-31 22:09:00,24.8,16.1,29.96,NW,315,13.8,13.8,69,0.00,-SN,,0.00,WeatherDisplay:10.37,2013-02-01 03:09:00,
2013-01-31 22:14:00,24.1,14.4,29.96,SW,225,15.0,15.0,66,0.00,-SN,,0.00,WeatherDisplay:10.37,2013-02-01 03:14:00,
2013-01-31 22:19:00,23.7,14.0,29.96,NW,315,18.4,18.4,66,0.00,-SN,,0.00,WeatherDisplay:10.37,2013-02-01 03:19:00,
2013-01-31 22:24:00,23.5,13.8,29.96,West,270,8.1,8.1,66,0.00,-SN,,0.00,WeatherDisplay:10.37,2013-02-01 03:24:00,
2013-01-31 22:29:00,23.4,13.7,29.96,WNW,292,11.5,11.5,66,0.00,-SN,,0.00,WeatherDisplay:10.37,2013-02-01 03:29:00,
2013-01-31 22:34:00,23.2,13.5,29.96,West,270,7.8,7.8,66,0.00,-SN,,0.00,WeatherDisplay:10.37,2013-02-01 03:34:00,
2013-01-31 22:39:00,23.0,13.7,29.96,NW,315,9.2,9.2,67,0.00,-SN,,0.00,WeatherDisplay:10.37,2013-02-01 03:39:00,
2013-01-31 22:44:00,22.8,13.5,29.96,WNW,292,9.2,9.2,67,0.00,-SN,,0.00,WeatherDisplay:10.37,2013-02-01 03:44:00,
2013-01-31 22:49:00,22.6,13.3,29.99,WNW,292,19.0,19.0,67,0.00,-SN,,0.00,WeatherDisplay:10.37,2013-02-01 03:49:00,
2013-01-31 22:54:00,22.5,13.2,29.99,NW,315,15.0,15.0,67,0.00,-SN,,0.00,WeatherDisplay:10.37,2013-02-01 03:54:00,
2013-01-31 22:59:00,22.3,11.9,29.99,West,270,17.3,17.3,64,0.00,-SN,,0.00,WeatherDisplay:10.37,2013-02-01 03:59:00,
2013-01-31 23:04:00,21.9,11.6,30.02,North,0,17.3,17.3,64,0.00,-SN,,0.00,WeatherDisplay:10.37,2013-02-01 04:04:00,
2013-01-31 23:09:00,21.7,11.4,30.02,NW,315,24.2,24.2,64,0.00,-SN,,0.00,WeatherDisplay:10.37,2013-02-01 04:09:00,
2013-01-31 23:14:00,21.6,11.3,30.02,WNW,292,12.7,12.7,64,0.00,-SN,,0.00,WeatherDisplay:10.37,2013-02-01 04:14:00,
2013-01-31 23:19:00,21.2,10.9,30.02,NNW,338,6.9,6.9,64,0.00,-SN,,0.00,WeatherDisplay:10.37,2013-02-01 04:19:00,
2013-01-31 23:24:00,21.2,10.9,30.02,West,270,18.4,18.4,64,0.00,-SN,,0.00,WeatherDisplay:10.37,2013-02-01 04:24:00,
2013-01-31 23:29:00,21.0,10.7,30.02,West,270,11.5,11.5,64,0.00,-SN,,0.00,WeatherDisplay:10.37,2013-02-01 04:29:00,
2013-01-31 23:34:00,20.8,10.6,30.02,West,270,15.0,15.0,64,0.00,-SN,,0.00,WeatherDisplay:10.37,2013-02-01 04:34:00,
2013-01-31 23:39:00,20.8,10.6,30.02,NNW,338,12.7,12.7,64,0.00,-SN,,0.00,WeatherDisplay:10.37,2013-02-01 04:39:00,
2013-01-31 23:44:00,20.8,10.6,30.02,NW,315,8.1,8.1,64,0.00,-SN,,0.00,WeatherDisplay:10.37,2013-02-01 04:44:00,
2013-01-31 23:49:00,20.5,10.2,30.02,NW,315,8.1,8.1,64,0.00,BKN,,0.00,WeatherDisplay:10.37,2013-02-01 04:49:00,
2013-01-31 23:54:00,19.9,9.7,30.02,NW,315,15.2,15.2,64,0.00,BKN,,0.00,WeatherDisplay:10.37,2013-02-01 04:54:00,
2013-01-31 23:59:00,19.6,9.4,30.02,West,270,15.0,15.0,64,0.00,BKN,,0.00,WeatherDisplay:10.37,2013-02-01 04:59:00,